Time;durP1;ratioP1;P1;durP2;ratioP2;P2;SDS_P1;SDS_P2;PMS_P1;PMS_P2;Temp;Humidity;BMP_temperature;BMP_pressure;BME280_temperature;BME280_humidity;BME280_pressure;Samples;Min_cycle;Max_cycle;Signal;HPM_P1;HPM_P2
2023/08/12 00:01:35;;;;;;;5.13;2.42;;;18.60;1.00;;;;;;4972265;28;20153;-74
2023/08/12 00:04:01;;;;;;;5.05;2.10;;;18.60;1.00;;;;;;4995432;28;20050;-74
2023/08/12 00:06:28;;;;;;;4.72;2.33;;;18.60;1.00;;;;;;4986319;28;20160;-74
2023/08/12 00:08:53;;;;;;;5.32;2.45;;;18.60;1.00;;;;;;4972163;28;20053;-74
2023/08/12 00:11:19;;;;;;;4.43;2.38;;;18.60;1.00;;;;;;4985752;28;20047;-73
2023/08/12 00:13:44;;;;;;;5.35;2.58;;;18.60;1.00;;;;;;4971676;28;20046;-74
2023/08/12 00:16:10;;;;;;;6.53;2.78;;;18.60;1.00;;;;;;4978857;28;20041;-74
2023/08/12 00:18:36;;;;;;;6.03;2.72;;;18.60;5.00;;;;;;4988946;28;20046;-74
2023/08/12 00:21:12;;;;;;;6.70;2.80;;;18.60;5.30;;;;;;5002601;28;20039;-74
2023/08/12 00:23:47;;;;;;;4.32;2.40;;;18.60;5.90;;;;;;5002893;28;20140;-74
2023/08/12 00:26:13;;;;;;;4.93;2.67;;;18.60;4.20;;;;;;4991633;28;20061;-73
2023/08/12 00:28:39;;;;;;;5.50;2.70;;;18.50;4.10;;;;;;4988862;28;20059;-74
2023/08/12 00:31:05;;;;;;;6.95;2.70;;;18.50;4.90;;;;;;4984121;28;20043;-74
2023/08/12 00:33:30;;;;;;;4.55;2.30;;;18.50;8.90;;;;;;4986559;28;20069;-74
2023/08/12 00:35:56;;;;;;;3.17;2.20;;;18.50;9.30;;;;;;4985216;28;20145;-74
2023/08/12 00:38:22;;;;;;;4.10;2.20;;;18.50;8.60;;;;;;4970691;28;20088;-74
2023/08/12 00:40:47;;;;;;;5.20;2.25;;;18.40;10.30;;;;;;5003573;28;20038;-74
2023/08/12 00:43:13;;;;;;;4.85;2.17;;;18.50;11.10;;;;;;4987551;28;20053;-75
2023/08/12 00:45:40;;;;;;;3.75;1.92;;;18.40;13.00;;;;;;4987527;28;20129;-74
2023/08/12 00:48:07;;;;;;;4.72;1.80;;;18.50;14.60;;;;;;4985468;28;20045;-74
2023/08/12 00:50:33;;;;;;;4.63;2.35;;;18.40;12.30;;;;;;4991243;28;20050;-74
2023/08/12 00:52:59;;;;;;;5.18;2.20;;;18.40;12.90;;;;;;5003140;28;20597;-74
2023/08/12 00:55:25;;;;;;;4.35;2.20;;;18.40;17.10;;;;;;4971583;28;20121;-75
2023/08/12 00:57:50;;;;;;;4.47;2.45;;;18.30;19.80;;;;;;5002968;28;20034;-75
2023/08/12 01:00:19;;;;;;;6.75;2.08;;;18.40;22.70;;;;;;4987575;28;20041;-75
2023/08/12 01:02:48;;;;;;;4.28;2.33;;;18.30;24.80;;;;;;4974144;28;20049;-74
2023/08/12 01:05:14;;;;;;;5.70;2.50;;;18.20;27.30;;;;;;4983286;28;20151;-73
2023/08/12 01:07:40;;;;;;;6.95;2.90;;;18.30;29.30;;;;;;4964355;28;20047;-74
2023/08/12 01:10:06;;;;;;;5.40;2.33;;;18.20;33.60;;;;;;5001278;28;20398;-73
2023/08/12 01:12:40;;;;;;;6.15;2.38;;;18.30;36.40;;;;;;5007498;28;20042;-74
2023/08/12 01:15:14;;;;;;;4.72;2.40;;;18.20;39.30;;;;;;4986239;28;20716;-74
2023/08/12 01:17:41;;;;;;;5.43;2.33;;;18.20;41.30;;;;;;4986972;28;20034;-74
2023/08/12 01:20:08;;;;;;;4.68;2.15;;;18.20;44.50;;;;;;4993441;28;20121;-74
2023/08/12 01:22:39;;;;;;;5.20;2.47;;;18.20;48.70;;;;;;4991414;28;20042;-74
2023/08/12 01:25:05;;;;;;;4.68;2.40;;;18.20;53.10;;;;;;4987357;28;20030;-74
2023/08/12 01:27:31;;;;;;;6.35;2.70;;;18.10;54.90;;;;;;4983249;28;20057;-74
2023/08/12 01:29:57;;;;;;;3.90;2.28;;;18.10;57.60;;;;;;4972233;28;20436;-74
2023/08/12 01:32:50;;;;;;;6.25;2.75;;;18.10;60.10;;;;;;4989231;28;20061;-74
2023/08/12 01:35:46;;;;;;;7.20;3.00;;;18.00;61.20;;;;;;4976166;28;20042;-74
2023/08/12 01:38:12;;;;;;;4.82;3.13;;;18.00;63.30;;;;;;4987016;28;20129;-74
2023/08/12 01:40:40;;;;;;;5.35;3.13;;;18.00;67.20;;;;;;4983527;28;20038;-74
2023/08/12 01:43:08;;;;;;;5.13;2.83;;;17.90;70.90;;;;;;4986369;28;20042;-74
2023/08/12 01:45:34;;;;;;;6.95;2.97;;;17.90;73.80;;;;;;5000810;28;20043;-74
2023/08/12 01:47:59;;;;;;;5.85;2.80;;;17.90;74.90;;;;;;4991027;28;20038;-74
2023/08/12 01:50:25;;;;;;;6.43;3.00;;;17.80;76.40;;;;;;4977167;28;20038;-74
2023/08/12 01:52:51;;;;;;;4.68;2.75;;;17.80;82.00;;;;;;4985134;28;20353;-74
2023/08/12 01:55:17;;;;;;;6.10;3.05;;;17.80;86.00;;;;;;5001201;28;20030;-73
2023/08/12 01:57:42;;;;;;;5.90;4.00;;;17.70;87.80;;;;;;4979699;28;20037;-74
2023/08/12 02:00:08;;;;;;;7.50;3.03;;;17.70;90.20;;;;;;4984694;28;20042;-74
2023/08/12 02:02:34;;;;;;;4.63;3.10;;;17.60;92.00;;;;;;4968175;28;20129;-74
2023/08/12 02:04:59;;;;;;;7.32;3.10;;;17.70;98.80;;;;;;4971018;28;20042;-74
2023/08/12 02:07:25;;;;;;;13.10;4.70;;;17.70;99.90;;;;;;4978018;28;20038;-74
2023/08/12 02:09:50;;;;;;;8.27;3.28;;;17.60;99.90;;;;;;5000132;28;20120;-74
2023/08/12 02:12:16;;;;;;;5.35;3.20;;;17.60;99.90;;;;;;4985652;28;20038;-74
2023/08/12 02:14:42;;;;;;;8.77;3.40;;;17.60;99.90;;;;;;4984959;28;20405;-74
2023/08/12 02:17:08;;;;;;;7.65;3.60;;;17.70;99.90;;;;;;4968466;28;20116;-74
2023/08/12 02:19:34;;;;;;;7.60;3.45;;;17.70;99.90;;;;;;4985464;28;20038;-74
2023/08/12 02:22:01;;;;;;;7.35;3.72;;;17.80;99.90;;;;;;5001665;28;20077;-73
2023/08/12 02:24:27;;;;;;;6.90;4.07;;;17.90;99.90;;;;;;4983791;28;20046;-74
2023/08/12 02:26:53;;;;;;;8.23;4.10;;;18.00;99.90;;;;;;4986001;28;20587;-74
2023/08/12 02:29:19;;;;;;;5.03;3.28;;;18.10;99.90;;;;;;4970896;28;20085;-74
2023/08/12 02:31:47;;;;;;;8.65;3.95;;;18.20;99.90;;;;;;5000563;28;20157;-73
2023/08/12 02:34:12;;;;;;;8.75;5.05;;;18.20;99.90;;;;;;4992014;28;20039;-74
2023/08/12 02:36:38;;;;;;;8.80;3.67;;;18.20;99.90;;;;;;4982834;28;20511;-74
2023/08/12 02:39:04;;;;;;;7.13;4.43;;;18.30;99.90;;;;;;4985474;28;20065;-74
2023/08/12 02:41:30;;;;;;;6.78;4.18;;;18.30;99.90;;;;;;4983979;28;20065;-74
2023/08/12 02:43:56;;;;;;;7.38;4.05;;;18.40;99.90;;;;;;4984684;28;20074;-74
2023/08/12 02:46:22;;;;;;;7.80;4.20;;;18.40;99.90;;;;;;4981913;28;20072;-75
2023/08/12 02:48:48;;;;;;;7.95;4.13;;;18.40;99.90;;;;;;4986775;28;20820;-74
2023/08/12 02:51:13;;;;;;;10.35;5.30;;;18.40;99.90;;;;;;4983689;28;20049;-74
2023/08/12 02:53:39;;;;;;;7.80;4.93;;;18.40;99.90;;;;;;4985740;28;20122;-74
2023/08/12 02:56:05;;;;;;;8.80;4.60;;;18.40;99.90;;;;;;4988937;28;20088;-74
2023/08/12 02:58:30;;;;;;;7.88;5.05;;;18.50;99.90;;;;;;4973837;28;20035;-75
2023/08/12 03:00:56;;;;;;;8.55;5.03;;;18.50;99.90;;;;;;4985644;28;20042;-74
2023/08/12 03:03:22;;;;;;;9.70;5.32;;;18.60;99.90;;;;;;4968017;28;20038;-74
2023/08/12 03:05:48;;;;;;;9.98;5.32;;;18.60;99.90;;;;;;4984398;28;20552;-74
2023/08/12 03:08:14;;;;;;;9.30;6.00;;;18.60;99.90;;;;;;4960396;28;20042;-74
2023/08/12 03:10:41;;;;;;;8.70;5.45;;;18.60;99.90;;;;;;4995274;28;20037;-74
2023/08/12 03:13:07;;;;;;;7.55;5.22;;;18.60;99.90;;;;;;4965153;28;20042;-74
2023/08/12 03:15:32;;;;;;;11.55;5.40;;;18.60;99.90;;;;;;4999475;28;20492;-74
2023/08/12 03:17:58;;;;;;;13.65;5.68;;;18.60;99.90;;;;;;4980438;28;20039;-74
2023/08/12 03:20:24;;;;;;;8.90;5.57;;;18.50;99.90;;;;;;4994375;28;20121;-74
2023/08/12 03:22:49;;;;;;;10.40;6.22;;;18.50;99.90;;;;;;4984125;28;20042;-74
2023/08/12 03:25:15;;;;;;;10.57;6.38;;;18.40;99.90;;;;;;4965358;28;20053;-74
2023/08/12 03:27:41;;;;;;;8.80;5.43;;;18.40;99.90;;;;;;4993284;28;20054;-74
2023/08/12 03:30:07;;;;;;;9.57;5.75;;;18.40;99.90;;;;;;4985186;28;20046;-74
2023/08/12 03:32:33;;;;;;;8.52;5.28;;;18.40;99.90;;;;;;4999926;28;20046;-74
2023/08/12 03:34:59;;;;;;;9.32;5.35;;;18.40;99.90;;;;;;4985299;28;20043;-74
2023/08/12 03:37:25;;;;;;;10.60;5.95;;;18.30;99.90;;;;;;4998607;28;20038;-74
2023/08/12 03:39:51;;;;;;;10.13;6.65;;;18.30;99.90;;;;;;4976072;28;20523;-74
2023/08/12 03:42:17;;;;;;;11.13;6.25;;;18.40;99.90;;;;;;4968478;28;20070;-74
2023/08/12 03:44:43;;;;;;;10.45;6.75;;;18.30;99.90;;;;;;4986279;28;20046;-74
2023/08/12 03:47:09;;;;;;;11.32;6.25;;;18.40;99.90;;;;;;4988189;28;20566;-74
2023/08/12 03:49:35;;;;;;;12.20;6.85;;;18.40;99.90;;;;;;4988917;28;20046;-74
2023/08/12 03:52:00;;;;;;;10.40;6.20;;;18.50;99.90;;;;;;5000117;28;20031;-74
2023/08/12 03:54:26;;;;;;;10.50;6.00;;;18.60;99.90;;;;;;4987908;28;20092;-74
2023/08/12 03:56:52;;;;;;;13.63;7.00;;;18.60;99.90;;;;;;5004822;28;20456;-74
2023/08/12 03:59:17;;;;;;;9.10;6.10;;;18.60;99.90;;;;;;5001948;28;20394;-74
2023/08/12 04:01:43;;;;;;;10.80;6.57;;;18.70;99.90;;;;;;5005346;28;20554;-74
2023/08/12 04:04:09;;;;;;;11.43;6.60;;;18.70;99.90;;;;;;5000037;28;20397;-74
2023/08/12 04:06:34;;;;;;;11.98;6.55;;;18.80;99.90;;;;;;5004429;28;20416;-74
2023/08/12 04:09:00;;;;;;;13.40;7.32;;;18.80;99.90;;;;;;4986679;28;20560;-74
2023/08/12 04:11:25;;;;;;;15.40;6.53;;;18.80;99.90;;;;;;4983558;28;20138;-74
2023/08/12 04:13:51;;;;;;;12.60;6.35;;;18.80;99.90;;;;;;5002408;28;20042;-74
2023/08/12 04:16:16;;;;;;;12.45;6.80;;;18.80;99.90;;;;;;4988014;28;20030;-74
2023/08/12 04:18:42;;;;;;;8.70;6.20;;;18.90;99.90;;;;;;4988838;28;20073;-73
2023/08/12 04:21:08;;;;;;;12.95;6.63;;;18.90;99.90;;;;;;4985691;28;20061;-73
2023/08/12 04:23:34;;;;;;;11.77;7.15;;;19.00;99.90;;;;;;4984750;28;20302;-74
2023/08/12 04:25:59;;;;;;;14.20;7.70;;;18.90;99.90;;;;;;4988276;28;20046;-74
2023/08/12 04:28:25;;;;;;;11.45;7.22;;;19.00;99.90;;;;;;4988793;28;20284;-74
2023/08/12 04:30:52;;;;;;;12.18;6.55;;;19.00;99.90;;;;;;5005275;28;20050;-74
2023/08/12 04:33:19;;;;;;;11.80;6.35;;;19.00;99.90;;;;;;4990158;28;20053;-74
2023/08/12 04:35:45;;;;;;;11.35;6.97;;;19.00;99.90;;;;;;4991244;28;20412;-74
2023/08/12 04:38:11;;;;;;;10.55;6.97;;;19.10;99.90;;;;;;4986866;28;20204;-74
2023/08/12 04:40:41;;;;;;;12.02;6.82;;;19.10;99.90;;;;;;4993364;28;20113;-74
2023/08/12 04:43:11;;;;;;;11.15;7.07;;;19.10;99.90;;;;;;4990345;28;20389;-74
2023/08/12 04:45:38;;;;;;;11.95;7.03;;;19.10;99.90;;;;;;5010330;28;20419;-74
2023/08/12 04:48:04;;;;;;;13.73;7.15;;;19.10;99.90;;;;;;4987012;28;20700;-74
2023/08/12 04:50:34;;;;;;;13.30;6.57;;;19.10;99.90;;;;;;5003055;28;20121;-74
2023/08/12 04:53:00;;;;;;;13.07;6.65;;;19.20;99.90;;;;;;4992709;28;20085;-74
2023/08/12 04:55:26;;;;;;;12.77;6.88;;;19.20;99.90;;;;;;4984966;28;20083;-74
2023/08/12 04:57:52;;;;;;;14.70;7.72;;;19.20;99.90;;;;;;4987021;28;20422;-74
2023/08/12 05:00:18;;;;;;;9.60;7.03;;;19.20;99.90;;;;;;5000293;28;20053;-74
2023/08/12 05:02:44;;;;;;;11.65;6.57;;;19.20;99.90;;;;;;4985944;28;20037;-74
2023/08/12 05:05:09;;;;;;;11.63;6.32;;;19.20;99.90;;;;;;4999839;28;20523;-74
2023/08/12 05:07:35;;;;;;;14.95;7.43;;;19.20;99.90;;;;;;4990151;28;20065;-74
2023/08/12 05:10:01;;;;;;;12.45;7.07;;;19.30;99.90;;;;;;5009039;28;20199;-74
2023/08/12 05:12:27;;;;;;;13.05;7.10;;;19.30;99.90;;;;;;4977157;28;20042;-74
2023/08/12 05:14:53;;;;;;;19.95;8.27;;;19.30;99.90;;;;;;4980075;28;20049;-74
2023/08/12 05:17:18;;;;;;;16.65;7.03;;;19.30;99.90;;;;;;4985094;28;20173;-74
2023/08/12 05:19:44;;;;;;;15.07;7.43;;;19.40;99.90;;;;;;5002697;28;20034;-74
2023/08/12 05:22:10;;;;;;;11.02;6.78;;;19.40;99.90;;;;;;4991213;28;20034;-74
2023/08/12 05:24:35;;;;;;;10.85;6.50;;;19.50;99.90;;;;;;4982224;28;20053;-74
2023/08/12 05:27:01;;;;;;;11.35;6.88;;;19.50;99.90;;;;;;4981040;28;20045;-73
2023/08/12 05:29:27;;;;;;;10.43;6.90;;;19.50;99.90;;;;;;4989449;28;20050;-73
2023/08/12 05:31:53;;;;;;;11.57;6.50;;;19.70;99.90;;;;;;4983720;28;20052;-74
2023/08/12 05:34:18;;;;;;;11.30;6.80;;;19.80;99.90;;;;;;4981646;28;20541;-73
2023/08/12 05:36:44;;;;;;;12.75;7.22;;;19.90;99.90;;;;;;4968154;28;20038;-74
2023/08/12 05:39:10;;;;;;;12.45;7.40;;;20.00;99.90;;;;;;4993483;28;20466;-73
2023/08/12 05:41:35;;;;;;;9.85;7.00;;;20.10;97.30;;;;;;4969317;28;20042;-73
2023/08/12 05:44:01;;;;;;;12.55;7.43;;;20.30;94.10;;;;;;4985360;28;20053;-74
2023/08/12 05:46:26;;;;;;;11.25;7.25;;;20.40;90.30;;;;;;4985189;28;20445;-73
2023/08/12 05:48:52;;;;;;;12.13;7.47;;;20.50;81.60;;;;;;4986298;28;20048;-73
2023/08/12 05:51:17;;;;;;;11.15;7.32;;;20.60;72.60;;;;;;4985923;28;20407;-74
2023/08/12 05:53:43;;;;;;;13.20;7.15;;;20.70;63.10;;;;;;4986616;28;20046;-73
2023/08/12 05:56:09;;;;;;;12.95;6.68;;;20.80;53.70;;;;;;4970353;28;20117;-73
2023/08/12 05:58:34;;;;;;;12.98;6.70;;;21.00;40.80;;;;;;4999102;28;20034;-74
2023/08/12 06:01:00;;;;;;;12.60;7.57;;;21.10;25.60;;;;;;4984443;28;20073;-74
2023/08/12 06:03:25;;;;;;;11.73;6.88;;;21.20;12.00;;;;;;5002663;28;20750;-73
2023/08/12 06:05:51;;;;;;;15.27;7.75;;;21.30;3.10;;;;;;4985483;28;20085;-74
2023/08/12 06:08:17;;;;;;;11.68;7.47;;;21.60;1.00;;;;;;4984643;28;20046;-73
2023/08/12 06:10:43;;;;;;;12.63;7.65;;;21.70;1.00;;;;;;4982750;28;21151;-73
2023/08/12 06:13:08;;;;;;;11.30;7.30;;;21.90;1.00;;;;;;4977905;28;20083;-74
2023/08/12 06:15:34;;;;;;;13.85;7.80;;;22.00;1.00;;;;;;4986531;28;20038;-74
2023/08/12 06:18:02;;;;;;;13.05;7.93;;;22.10;1.00;;;;;;5002252;28;20034;-73
2023/08/12 06:20:28;;;;;;;13.75;7.40;;;22.10;1.00;;;;;;4989234;28;20108;-74
2023/08/12 06:22:54;;;;;;;13.45;7.63;;;22.10;1.00;;;;;;4986269;28;20433;-72
2023/08/12 06:25:20;;;;;;;10.30;7.32;;;22.00;1.00;;;;;;4982864;28;20570;-76
2023/08/12 06:27:47;;;;;;;14.80;8.02;;;22.00;1.00;;;;;;4985814;28;20089;-73
2023/08/12 06:30:14;;;;;;;11.82;7.05;;;22.00;1.00;;;;;;4992990;28;20044;-73
2023/08/12 06:32:40;;;;;;;15.90;7.70;;;21.90;1.00;;;;;;4977012;28;20050;-73
2023/08/12 06:35:06;;;;;;;12.90;6.88;;;21.80;1.00;;;;;;4976159;28;20046;-73
2023/08/12 06:37:32;;;;;;;12.88;7.38;;;21.70;1.00;;;;;;4961396;28;20049;-73
2023/08/12 06:39:57;;;;;;;12.52;7.40;;;21.70;1.00;;;;;;4997185;28;20038;-72
2023/08/12 06:42:23;;;;;;;12.55;7.30;;;21.60;1.00;;;;;;4994710;28;20463;-73
2023/08/12 06:44:56;;;;;;;11.57;7.55;;;21.50;1.00;;;;;;4980078;28;20094;-73
2023/08/12 06:47:22;;;;;;;13.57;6.82;;;21.50;1.00;;;;;;4963170;28;20043;-73
2023/08/12 06:49:48;;;;;;;14.52;7.70;;;21.50;1.00;;;;;;4964210;28;20505;-73
2023/08/12 06:52:14;;;;;;;12.57;7.30;;;21.50;1.00;;;;;;4963464;28;20274;-73
2023/08/12 06:54:40;;;;;;;14.38;7.88;;;21.50;1.00;;;;;;4977811;28;20049;-74
2023/08/12 06:57:05;;;;;;;11.45;7.28;;;21.50;1.00;;;;;;4981091;28;20034;-74
2023/08/12 06:59:31;;;;;;;14.32;8.50;;;21.60;1.00;;;;;;4977872;28;20062;-73
2023/08/12 07:01:56;;;;;;;14.90;8.80;;;21.40;1.00;;;;;;4976625;28;20078;-73
2023/08/12 07:04:22;;;;;;;13.88;8.27;;;21.50;1.00;;;;;;4992850;28;20038;-72
2023/08/12 07:06:48;;;;;;;15.52;8.50;;;21.50;1.00;;;;;;4976165;28;20515;-74
2023/08/12 07:09:14;;;;;;;15.63;8.68;;;21.50;1.00;;;;;;4992859;28;20527;-73
2023/08/12 07:11:40;;;;;;;14.52;8.93;;;21.50;1.00;;;;;;4989707;28;20044;-74
2023/08/12 07:14:06;;;;;;;16.67;8.77;;;21.50;1.00;;;;;;4975749;28;20556;-73
2023/08/12 07:16:31;;;;;;;18.15;8.60;;;21.50;1.00;;;;;;4990070;28;20504;-73
2023/08/12 07:18:57;;;;;;;15.20;9.20;;;21.60;1.00;;;;;;4974132;28;20042;-74
2023/08/12 07:21:23;;;;;;;14.25;8.43;;;21.60;1.00;;;;;;4975562;28;20088;-73
2023/08/12 07:23:48;;;;;;;13.90;8.30;;;21.60;1.00;;;;;;4976967;28;20034;-74
2023/08/12 07:26:14;;;;;;;16.45;9.35;;;21.60;1.00;;;;;;4998959;28;20049;-74
2023/08/12 07:28:41;;;;;;;16.33;9.27;;;21.60;1.00;;;;;;4997754;28;20070;-72
2023/08/12 07:31:07;;;;;;;17.00;9.18;;;21.60;1.00;;;;;;4977780;28;20139;-73
2023/08/12 07:33:32;;;;;;;15.38;8.65;;;21.60;1.00;;;;;;4977128;28;20034;-72
2023/08/12 07:36:01;;;;;;;15.23;9.02;;;21.60;1.00;;;;;;4981676;28;20501;-73
2023/08/12 07:38:26;;;;;;;17.77;9.95;;;21.60;1.00;;;;;;5000271;28;20041;-73
2023/08/12 07:40:52;;;;;;;14.75;9.20;;;21.60;1.00;;;;;;4983340;28;20039;-73
2023/08/12 07:43:17;;;;;;;13.05;8.93;;;21.60;1.00;;;;;;4983319;28;20121;-72
2023/08/12 07:45:43;;;;;;;16.08;9.30;;;21.70;1.00;;;;;;4984710;28;20487;-73
2023/08/12 07:48:09;;;;;;;13.98;8.63;;;21.60;1.00;;;;;;4980385;28;20073;-73
2023/08/12 07:50:34;;;;;;;17.80;10.25;;;21.70;1.00;;;;;;4977699;28;20081;-73
2023/08/12 07:53:00;;;;;;;14.85;9.73;;;21.70;1.00;;;;;;4980862;28;20766;-72
2023/08/12 07:55:27;;;;;;;13.85;9.40;;;21.70;1.00;;;;;;4970505;28;20041;-73
2023/08/12 07:57:53;;;;;;;13.95;9.48;;;21.70;1.00;;;;;;5000080;28;20074;-73
2023/08/12 08:00:19;;;;;;;14.25;9.50;;;21.80;1.00;;;;;;4980369;28;20121;-73
2023/08/12 08:02:45;;;;;;;15.05;9.50;;;21.90;1.00;;;;;;4972063;28;20101;-72
2023/08/12 08:05:10;;;;;;;14.05;9.40;;;22.00;1.00;;;;;;4979162;28;20046;-73
2023/08/12 08:07:36;;;;;;;12.57;9.32;;;22.00;1.00;;;;;;4979434;28;20043;-73
2023/08/12 08:10:02;;;;;;;13.80;9.13;;;22.10;1.00;;;;;;4986977;28;20116;-73
2023/08/12 08:12:28;;;;;;;14.70;8.95;;;22.20;1.00;;;;;;4987292;28;20080;-73
2023/08/12 08:14:53;;;;;;;13.57;8.93;;;22.30;1.00;;;;;;4984633;28;20658;-73
2023/08/12 08:17:19;;;;;;;15.00;9.38;;;22.30;1.00;;;;;;4967555;28;20046;-73
2023/08/12 08:19:44;;;;;;;14.15;9.38;;;22.30;1.00;;;;;;4989723;28;20121;-73
2023/08/12 08:22:10;;;;;;;14.40;8.35;;;22.20;1.00;;;;;;5005818;28;20046;-73
2023/08/12 08:24:36;;;;;;;14.20;9.30;;;22.20;1.00;;;;;;4999178;28;20030;-74
2023/08/12 08:27:04;;;;;;;14.23;8.63;;;22.10;1.00;;;;;;4988797;28;20046;-73
2023/08/12 08:29:30;;;;;;;13.27;7.57;;;22.10;1.00;;;;;;5001547;28;20082;-73
2023/08/12 08:31:55;;;;;;;10.70;7.82;;;22.20;1.00;;;;;;5004793;28;20156;-73
2023/08/12 08:34:21;;;;;;;14.15;8.05;;;22.30;1.00;;;;;;4964908;28;20112;-74
2023/08/12 08:36:46;;;;;;;10.70;7.70;;;22.20;1.00;;;;;;5005624;28;20124;-73
2023/08/12 08:39:12;;;;;;;10.20;7.78;;;22.20;1.00;;;;;;4989554;28;20086;-75
2023/08/12 08:41:40;;;;;;;11.50;7.38;;;22.20;1.00;;;;;;4989926;28;20042;-73
2023/08/12 08:44:08;;;;;;;10.32;7.03;;;22.10;1.00;;;;;;5005419;28;20038;-73
2023/08/12 08:46:34;;;;;;;10.30;7.30;;;22.00;1.00;;;;;;5005381;28;20102;-73
2023/08/12 08:49:00;;;;;;;12.02;7.85;;;21.70;1.00;;;;;;5005066;28;20038;-73
2023/08/12 08:51:30;;;;;;;10.88;7.65;;;21.50;1.00;;;;;;4975606;28;20031;-73
2023/08/12 08:53:56;;;;;;;14.90;8.25;;;21.20;1.00;;;;;;4989043;28;20432;-73
2023/08/12 08:56:23;;;;;;;14.18;9.45;;;21.00;1.00;;;;;;4989563;28;20528;-71
2023/08/12 08:58:49;;;;;;;11.73;8.20;;;20.90;1.00;;;;;;4988963;28;20038;-71
2023/08/12 09:01:17;;;;;;;15.07;9.00;;;20.80;1.00;;;;;;4988593;28;20398;-71
2023/08/12 09:03:43;;;;;;;13.23;9.57;;;20.60;20.60;;;;;;5001550;28;20046;-72
2023/08/12 09:06:09;;;;;;;14.10;9.95;;;20.50;44.60;;;;;;5005079;28;20034;-71
2023/08/12 09:08:37;;;;;;;13.43;9.57;;;20.40;87.70;;;;;;5005371;28;20077;-71
2023/08/12 09:11:03;;;;;;;13.40;9.70;;;20.40;99.90;;;;;;4988967;28;20042;-71
2023/08/12 09:13:29;;;;;;;15.57;10.05;;;20.40;99.90;;;;;;5004580;28;20056;-71
2023/08/12 09:15:55;;;;;;;17.17;10.48;;;20.20;99.90;;;;;;5004183;28;20041;-71
2023/08/12 09:18:24;;;;;;;17.83;10.55;;;20.20;99.90;;;;;;4988424;28;20038;-71
2023/08/12 09:20:50;;;;;;;19.92;10.95;;;20.20;99.90;;;;;;4976639;28;20046;-71
2023/08/12 09:23:17;;;;;;;16.90;10.68;;;20.20;99.90;;;;;;5004455;28;20050;-71
2023/08/12 09:25:44;;;;;;;18.25;10.38;;;20.20;99.90;;;;;;5004728;28;20673;-71
2023/08/12 09:28:10;;;;;;;14.07;8.70;;;20.20;99.90;;;;;;5004627;28;20056;-71
2023/08/12 09:30:37;;;;;;;12.00;7.40;;;20.10;99.90;;;;;;4988405;28;20053;-71
2023/08/12 09:33:08;;;;;;;8.90;6.18;;;20.10;99.90;;;;;;4988635;28;20046;-71
2023/08/12 09:35:39;;;;;;;12.52;6.57;;;20.10;99.90;;;;;;4988683;28;20045;-71
2023/08/12 09:38:07;;;;;;;7.68;5.80;;;20.00;99.90;;;;;;4972046;28;20496;-71
2023/08/12 09:40:34;;;;;;;9.93;5.82;;;20.00;99.90;;;;;;4988376;28;20053;-71
2023/08/12 09:43:01;;;;;;;8.38;5.35;;;20.00;99.90;;;;;;5003986;28;20043;-71
2023/08/12 09:45:27;;;;;;;9.18;5.93;;;20.00;99.90;;;;;;4968979;28;20042;-71
2023/08/12 09:47:54;;;;;;;9.35;5.40;;;19.90;99.90;;;;;;5001808;28;20166;-71
2023/08/12 09:50:27;;;;;;;7.90;5.03;;;19.90;99.90;;;;;;4987709;28;20424;-71
2023/08/12 09:52:54;;;;;;;9.50;5.55;;;19.90;99.90;;;;;;5000461;28;20059;-71
2023/08/12 09:55:22;;;;;;;8.73;5.20;;;19.90;99.90;;;;;;4980885;28;20038;-71
2023/08/12 09:57:56;;;;;;;9.15;5.05;;;19.90;99.90;;;;;;4987533;28;20038;-71
2023/08/12 10:00:23;;;;;;;8.38;5.10;;;19.90;99.90;;;;;;4965218;28;20081;-71
2023/08/12 10:02:51;;;;;;;6.03;4.05;;;19.90;99.90;;;;;;4984625;28;20053;-71
2023/08/12 10:05:27;;;;;;;9.18;4.20;;;20.00;99.90;;;;;;4978381;28;20526;-71
2023/08/12 10:07:53;;;;;;;8.82;3.88;;;20.00;99.90;;;;;;4978597;28;20043;-71
2023/08/12 10:10:20;;;;;;;5.65;4.03;;;19.90;99.90;;;;;;4987936;28;20041;-71
2023/08/12 10:12:46;;;;;;;7.35;3.67;;;19.90;99.90;;;;;;4997865;28;20046;-71
2023/08/12 10:15:12;;;;;;;5.88;3.60;;;19.90;99.90;;;;;;4986208;28;20034;-72
2023/08/12 10:17:40;;;;;;;5.78;3.40;;;20.00;99.90;;;;;;5015951;28;20503;-72
2023/08/12 10:20:08;;;;;;;6.65;3.42;;;19.90;99.90;;;;;;4990666;28;20038;-72
2023/08/12 10:22:34;;;;;;;4.70;3.28;;;19.90;99.90;;;;;;4982689;28;20125;-72
2023/08/12 10:25:02;;;;;;;6.72;3.30;;;19.90;99.90;;;;;;4980634;28;20069;-72
2023/08/12 10:27:28;;;;;;;4.82;3.28;;;19.90;99.90;;;;;;4981759;28;20045;-71
2023/08/12 10:29:57;;;;;;;7.32;3.33;;;20.00;99.90;;;;;;4980502;28;20058;-71
2023/08/12 10:32:23;;;;;;;5.70;2.88;;;20.00;99.90;;;;;;4978371;28;20050;-72
2023/08/12 10:34:56;;;;;;;5.18;3.00;;;20.00;99.90;;;;;;4981324;28;20042;-72
2023/08/12 10:37:24;;;;;;;3.80;2.75;;;20.00;99.90;;;;;;4984498;28;20051;-70
2023/08/12 10:39:51;;;;;;;4.43;3.00;;;20.00;99.90;;;;;;4989565;28;20043;-72
2023/08/12 10:42:39;;;;;;;4.13;2.40;;;20.00;99.90;;;;;;4986233;28;20049;-71
2023/08/12 10:45:05;;;;;;;3.40;2.65;;;20.00;99.90;;;;;;4980758;28;20038;-71
2023/08/12 10:47:32;;;;;;;4.05;2.90;;;20.00;99.90;;;;;;4984078;28;20042;-70
2023/08/12 10:49:58;;;;;;;4.30;2.97;;;20.20;99.90;;;;;;4999498;28;20620;-71
2023/08/12 10:52:32;;;;;;;5.20;2.63;;;20.40;99.90;;;;;;4980148;28;20065;-71
2023/08/12 10:55:24;;;;;;;4.75;2.72;;;20.40;99.90;;;;;;4983958;28;20417;-72
2023/08/12 10:57:52;;;;;;;5.63;3.30;;;20.30;99.90;;;;;;4982789;28;20043;-71
2023/08/12 11:00:28;;;;;;;5.00;3.05;;;20.20;99.90;;;;;;4990219;28;20057;-71
2023/08/12 11:02:56;;;;;;;4.95;2.83;;;20.20;99.90;;;;;;4986473;28;20038;-71
2023/08/12 11:05:23;;;;;;;3.75;2.75;;;20.20;99.90;;;;;;4985221;28;20034;-72
2023/08/12 11:07:56;;;;;;;4.50;2.85;;;20.30;99.90;;;;;;4987483;28;20365;-73
2023/08/12 11:10:25;;;;;;;3.60;3.00;;;20.30;99.90;;;;;;4988418;28;20112;-73
2023/08/12 11:12:56;;;;;;;4.25;3.05;;;20.40;99.90;;;;;;4994526;28;20038;-73
2023/08/12 11:15:34;;;;;;;4.03;2.60;;;20.40;99.90;;;;;;4983268;28;20129;-72
2023/08/12 11:18:05;;;;;;;1.33;1.15;;;20.40;99.90;;;;;;4969069;28;20030;-72
2023/08/12 11:20:31;;;;;;;1.17;0.98;;;20.10;99.90;;;;;;4977966;28;20548;-71
2023/08/12 11:22:58;;;;;;;1.75;1.17;;;19.80;99.90;;;;;;4963717;28;20046;-71
2023/08/12 11:25:24;;;;;;;0.70;0.60;;;19.50;99.90;;;;;;4985644;28;20417;-71
2023/08/12 11:27:50;;;;;;;1.48;0.70;;;19.30;99.90;;;;;;4984722;28;20073;-71
2023/08/12 11:30:19;;;;;;;0.70;0.70;;;19.30;99.90;;;;;;4985409;28;20054;-71
2023/08/12 11:32:46;;;;;;;0.70;0.60;;;19.30;99.90;;;;;;4978196;28;20042;-71
2023/08/12 11:35:13;;;;;;;0.60;0.30;;;19.30;99.90;;;;;;4965905;28;20169;-72
2023/08/12 11:37:40;;;;;;;1.35;0.40;;;19.30;99.90;;;;;;4983592;28;20049;-72
2023/08/12 11:40:08;;;;;;;0.70;0.55;;;19.40;99.90;;;;;;4984382;28;20404;-71
2023/08/12 11:42:38;;;;;;;0.45;0.40;;;19.40;99.90;;;;;;5001345;28;20057;-71
2023/08/12 11:45:06;;;;;;;1.10;0.50;;;19.60;99.90;;;;;;4977688;28;20061;-71
2023/08/12 11:47:33;;;;;;;0.70;0.60;;;19.70;99.90;;;;;;4986053;28;20104;-72
2023/08/12 11:49:58;;;;;;;1.27;0.50;;;19.80;99.90;;;;;;4979670;28;20668;-71
2023/08/12 11:52:25;;;;;;;0.70;0.50;;;19.80;99.90;;;;;;4985041;28;20075;-71
2023/08/12 11:54:51;;;;;;;1.20;0.60;;;19.90;99.90;;;;;;4997291;28;20039;-71
2023/08/12 11:57:17;;;;;;;2.25;1.55;;;20.00;99.90;;;;;;4985066;28;20096;-71
2023/08/12 11:59:44;;;;;;;1.35;1.20;;;20.10;99.90;;;;;;4985315;28;20030;-71
2023/08/12 12:02:12;;;;;;;4.68;4.28;;;20.10;99.90;;;;;;4999771;28;20030;-71
2023/08/12 12:04:38;;;;;;;2.75;1.80;;;20.20;99.90;;;;;;4969351;28;20117;-72
2023/08/12 12:07:16;;;;;;;1.00;0.90;;;20.50;99.90;;;;;;4987054;28;20113;-72
2023/08/12 12:09:44;;;;;;;1.65;1.20;;;20.60;99.90;;;;;;4965973;28;20373;-72
2023/08/12 12:12:10;;;;;;;2.03;1.35;;;20.60;99.90;;;;;;4970765;28;20044;-72
2023/08/12 12:14:36;;;;;;;9.98;6.03;;;20.50;99.90;;;;;;4986523;28;20436;-72
2023/08/12 12:17:10;;;;;;;3.55;1.88;;;20.30;99.90;;;;;;4983923;28;20047;-71
2023/08/12 12:19:36;;;;;;;14.65;4.93;;;20.30;99.90;;;;;;4982080;28;20496;-72
2023/08/12 12:22:05;;;;;;;6.53;2.38;;;20.00;99.90;;;;;;4980388;28;20042;-72
2023/08/12 12:24:31;;;;;;;40.97;15.65;;;19.70;99.90;;;;;;4994680;28;20050;-72
2023/08/12 12:26:57;;;;;;;8.15;4.35;;;19.40;99.90;;;;;;4995872;28;20046;-72
2023/08/12 12:29:23;;;;;;;15.48;6.93;;;19.40;99.90;;;;;;4983470;28;20046;-72
2023/08/12 12:31:48;;;;;;;3.13;1.58;;;19.80;99.90;;;;;;4992842;28;20045;-72
2023/08/12 12:34:14;;;;;;;3.85;2.10;;;20.00;99.90;;;;;;4982125;28;20088;-72
2023/08/12 12:36:40;;;;;;;2.95;1.65;;;20.10;99.90;;;;;;4987238;28;20038;-72
2023/08/12 12:39:06;;;;;;;4.82;2.38;;;20.50;99.90;;;;;;5001556;28;20512;-72
2023/08/12 12:41:33;;;;;;;2.80;1.00;;;20.90;99.90;;;;;;4968139;28;20050;-73
2023/08/12 12:44:01;;;;;;;3.63;2.53;;;21.10;99.90;;;;;;4987811;28;20042;-72